Time;durP1;ratioP1;P1;durP2;ratioP2;P2;SDS_P1;SDS_P2;PMS_P1;PMS_P2;Temp;Humidity;BMP_temperature;BMP_pressure;BME280_temperature;BME280_humidity;BME280_pressure;Samples;Min_cycle;Max_cycle;Signal;HPM_P1;HPM_P2
2023/07/26 00:01:26;;;;;;;25.70;3.08;;;;;;;31.51;52.70;98650.91;5053735;28;20207;-71
2023/07/26 00:03:55;;;;;;;30.05;3.88;;;;;;;31.34;52.74;98640.94;5053785;28;20232;-71
2023/07/26 00:06:22;;;;;;;25.42;2.80;;;;;;;31.44;52.86;98655.16;5053371;28;20634;-71
2023/07/26 00:08:48;;;;;;;30.48;3.53;;;;;;;31.37;53.07;98656.72;5053176;28;20280;-72
2023/07/26 00:11:15;;;;;;;24.02;2.88;;;;;;;31.40;52.56;98648.41;5052933;28;20199;-72
2023/07/26 00:13:44;;;;;;;24.27;2.70;;;;;;;31.47;52.24;98645.00;5053499;28;20260;-72
2023/07/26 00:16:10;;;;;;;24.23;2.75;;;;;;;31.37;52.20;98646.00;5053579;28;20191;-72
2023/07/26 00:18:40;;;;;;;26.08;2.90;;;;;;;31.36;52.80;98634.44;5053078;28;20187;-72
2023/07/26 00:21:07;;;;;;;28.95;3.05;;;;;;;31.27;52.98;98629.09;5053100;28;20202;-72
2023/07/26 00:23:33;;;;;;;23.17;2.63;;;;;;;31.28;52.41;98636.16;5053394;28;20783;-72
2023/07/26 00:26:00;;;;;;;25.63;2.78;;;;;;;31.32;52.49;98638.38;5052947;28;20203;-72
2023/07/26 00:28:27;;;;;;;32.35;3.35;;;;;;;31.25;52.90;98637.28;5052999;28;20199;-72
2023/07/26 00:30:55;;;;;;;28.73;3.13;;;;;;;31.25;52.86;98631.91;5053253;28;20191;-72
2023/07/26 00:33:22;;;;;;;23.02;2.58;;;;;;;31.19;52.67;98637.84;5052892;28;20214;-72
2023/07/26 00:35:48;;;;;;;25.73;2.90;;;;;;;31.12;52.48;98617.13;5052947;28;20206;-72
2023/07/26 00:38:15;;;;;;;24.10;2.75;;;;;;;31.12;53.01;98628.69;5052616;28;20203;-71
2023/07/26 00:40:42;;;;;;;28.50;3.30;;;;;;;31.18;53.17;98620.06;5052299;28;20187;-71
2023/07/26 00:43:09;;;;;;;25.52;2.78;;;;;;;31.12;52.70;98615.31;5052923;28;20305;-71
2023/07/26 00:45:39;;;;;;;28.25;3.08;;;;;;;31.25;52.99;98615.03;5052611;28;20654;-71
2023/07/26 00:48:08;;;;;;;26.38;2.83;;;;;;;31.02;52.75;98581.47;5052904;28;20207;-72
2023/07/26 00:50:36;;;;;;;26.77;2.85;;;;;;;31.14;52.93;98607.13;5052425;28;20634;-72
2023/07/26 00:53:03;;;;;;;30.17;4.80;;;;;;;31.09;52.99;98609.38;5052533;28;20206;-72
2023/07/26 00:55:30;;;;;;;26.52;2.95;;;;;;;31.11;52.89;98586.81;5033919;28;20194;-72
2023/07/26 00:57:58;;;;;;;27.00;3.10;;;;;;;31.14;53.04;98599.09;5052217;28;20203;-71
2023/07/26 01:00:25;;;;;;;27.45;3.42;;;;;;;31.08;52.76;98583.59;5017346;28;20589;-73
2023/07/26 01:02:51;;;;;;;26.67;2.85;;;;;;;31.09;52.89;98590.63;5051025;28;20217;-72
2023/07/26 01:05:22;;;;;;;22.95;2.63;;;;;;;31.19;53.15;98599.50;5052189;28;20227;-72
2023/07/26 01:07:59;;;;;;;25.45;2.85;;;;;;;31.20;53.06;98596.69;5052455;28;20219;-72
2023/07/26 01:10:34;;;;;;;28.85;3.10;;;;;;;30.88;52.74;98554.13;5052059;28;20210;-71
2023/07/26 01:13:15;;;;;;;19.73;2.40;;;;;;;31.05;53.48;98587.41;5052596;28;20195;-72
2023/07/26 01:15:45;;;;;;;24.23;2.65;;;;;;;30.94;54.07;98590.19;5052139;28;20214;-71
2023/07/26 01:18:15;;;;;;;26.67;2.83;;;;;;;30.94;53.95;98587.50;5051463;28;20191;-72
2023/07/26 01:20:44;;;;;;;22.55;2.60;;;;;;;30.96;53.74;98581.03;5052026;28;20214;-73
2023/07/26 01:23:12;;;;;;;25.52;2.78;;;;;;;31.11;53.67;98586.00;5042216;28;20199;-72
2023/07/26 01:25:39;;;;;;;24.92;2.75;;;;;;;30.93;53.90;98580.47;5051546;28;20219;-72
2023/07/26 01:28:06;;;;;;;24.33;2.78;;;;;;;30.99;54.05;98587.97;5051716;28;20198;-72
2023/07/26 01:30:34;;;;;;;16.45;2.13;;;;;;;31.09;54.26;98599.53;5051638;28;20260;-73
2023/07/26 01:33:05;;;;;;;15.35;2.03;;;;;;;31.13;54.34;98594.72;5051833;28;20260;-72
2023/07/26 01:35:33;;;;;;;24.75;2.75;;;;;;;31.07;53.88;98595.31;5033725;28;20214;-72
2023/07/26 01:38:01;;;;;;;19.58;2.30;;;;;;;31.13;54.21;98594.72;5033913;28;20198;-72
2023/07/26 01:40:29;;;;;;;27.17;3.20;;;;;;;31.18;54.02;98604.00;5017049;28;20211;-71
2023/07/26 01:42:57;;;;;;;16.35;2.05;;;;;;;31.17;54.40;98604.16;5051959;28;20199;-72
2023/07/26 01:45:23;;;;;;;16.15;1.92;;;;;;;31.15;54.54;98600.78;5033340;28;20231;-72
2023/07/26 01:47:51;;;;;;;21.42;2.42;;;;;;;31.20;54.38;98603.88;5051875;28;20210;-71
2023/07/26 01:50:18;;;;;;;15.75;2.08;;;;;;;31.13;54.70;98600.09;5052017;28;20241;-71
2023/07/26 01:52:45;;;;;;;21.80;3.42;;;;;;;31.08;55.22;98608.53;5033091;28;20203;-71
2023/07/26 01:55:12;;;;;;;19.58;2.35;;;;;;;30.98;55.53;98592.50;5051899;28;20207;-71
2023/07/26 01:57:40;;;;;;;25.75;2.75;;;;;;;31.14;55.27;98599.94;5032826;28;20221;-71
2023/07/26 02:00:08;;;;;;;25.85;2.90;;;;;;;31.19;54.98;98596.81;5051785;28;20202;-71
2023/07/26 02:02:35;;;;;;;15.85;2.00;;;;;;;31.06;55.89;98593.59;5051039;28;20199;-71
2023/07/26 02:05:02;;;;;;;24.90;2.90;;;;;;;31.10;55.44;98597.69;5050789;28;20223;-72
2023/07/26 02:07:29;;;;;;;28.80;3.30;;;;;;;31.03;56.12;98581.34;5051283;28;20248;-72
2023/07/26 02:09:55;;;;;;;19.27;2.42;;;;;;;31.16;55.67;98610.50;5050402;28;20238;-71
2023/07/26 02:12:22;;;;;;;19.83;2.42;;;;;;;31.13;55.50;98597.41;5049137;28;20206;-71
2023/07/26 02:14:50;;;;;;;18.02;2.28;;;;;;;31.15;55.21;98584.69;5050526;28;20199;-71
2023/07/26 02:17:17;;;;;;;20.52;2.42;;;;;;;31.19;55.54;98604.84;5050818;28;20308;-71
2023/07/26 02:19:44;;;;;;;25.25;2.75;;;;;;;31.18;56.08;98600.50;5049744;28;20233;-70
2023/07/26 02:22:10;;;;;;;24.42;2.83;;;;;;;31.13;56.14;98605.44;5050719;28;20198;-72
2023/07/26 02:24:37;;;;;;;27.95;3.13;;;;;;;31.20;56.00;98602.06;5050115;28;20222;-72
2023/07/26 02:27:04;;;;;;;24.70;2.78;;;;;;;31.18;55.91;98597.84;5050777;28;20202;-72
2023/07/26 02:29:32;;;;;;;26.33;3.45;;;;;;;31.19;55.74;98602.19;5050424;28;20202;-72
2023/07/26 02:32:00;;;;;;;30.33;3.25;;;;;;;31.22;56.06;98607.25;5050324;28;20253;-72
2023/07/26 02:34:27;;;;;;;27.77;3.00;;;;;;;31.22;55.99;98613.47;5050268;28;20202;-71
2023/07/26 02:36:53;;;;;;;28.30;3.00;;;;;;;31.24;55.52;98607.97;5050748;28;20202;-71
2023/07/26 02:39:20;;;;;;;24.40;2.67;;;;;;;31.24;56.09;98613.31;5050415;28;20206;-71
2023/07/26 02:41:47;;;;;;;27.70;3.03;;;;;;;31.21;56.41;98624.31;5050618;28;20191;-71
2023/07/26 02:44:14;;;;;;;24.15;2.63;;;;;;;31.11;55.65;98618.97;5050775;28;20229;-71
2023/07/26 02:46:40;;;;;;;34.75;3.67;;;;;;;31.32;55.60;98624.19;5050610;28;20210;-72
2023/07/26 02:49:09;;;;;;;30.17;3.20;;;;;;;31.52;55.35;98623.19;5015313;28;20199;-71
2023/07/26 02:51:35;;;;;;;34.83;3.55;;;;;;;31.39;56.14;98622.63;5050549;28;20268;-72
2023/07/26 02:54:02;;;;;;;28.00;3.13;;;;;;;31.41;56.28;98626.84;5047567;28;20195;-68
2023/07/26 02:56:29;;;;;;;26.58;3.08;;;;;;;31.44;56.51;98623.00;5050582;28;20216;-68
2023/07/26 02:58:55;;;;;;;26.67;2.85;;;;;;;31.34;56.84;98620.38;5049891;28;20198;-68
2023/07/26 03:01:22;;;;;;;31.15;3.33;;;;;;;31.34;56.96;98625.72;5050390;28;20203;-70
2023/07/26 03:03:49;;;;;;;31.50;3.35;;;;;;;31.37;57.33;98625.44;5050835;28;20202;-73
2023/07/26 03:06:18;;;;;;;33.97;3.53;;;;;;;31.37;57.05;98608.50;5050345;28;20231;-71
2023/07/26 03:08:45;;;;;;;29.58;3.78;;;;;;;31.28;57.96;98623.63;5050610;28;20238;-70
2023/07/26 03:11:11;;;;;;;29.95;3.20;;;;;;;31.25;58.36;98637.28;5050664;28;20230;-70
2023/07/26 03:13:38;;;;;;;29.52;3.15;;;;;;;31.20;58.20;98622.63;5050315;28;20642;-70
2023/07/26 03:16:05;;;;;;;33.30;3.47;;;;;;;31.06;57.83;98621.22;5050424;28;20620;-70
2023/07/26 03:18:32;;;;;;;27.35;3.00;;;;;;;31.17;58.53;98639.00;5050241;28;20618;-70
2023/07/26 03:20:58;;;;;;;40.13;3.88;;;;;;;31.27;58.29;98635.31;5050100;28;20654;-70
2023/07/26 03:23:26;;;;;;;31.70;3.38;;;;;;;31.40;59.56;98641.22;5050084;28;20268;-70
2023/07/26 03:25:53;;;;;;;32.65;3.47;;;;;;;31.31;58.68;98644.75;5052529;28;20729;-71
2023/07/26 03:28:20;;;;;;;26.33;2.92;;;;;;;31.32;59.96;98638.38;5055929;28;20503;-75
2023/07/26 03:30:47;;;;;;;27.90;3.50;;;;;;;31.27;60.04;98621.06;5056057;28;20194;-78
2023/07/26 03:33:14;;;;;;;30.33;3.17;;;;;;;31.42;60.20;98627.69;5054975;28;20198;-72
2023/07/26 03:35:40;;;;;;;35.17;3.55;;;;;;;31.50;58.84;98622.44;5053326;28;20199;-73
2023/07/26 03:38:07;;;;;;;29.88;3.50;;;;;;;31.69;60.03;98646.53;5054475;28;20260;-72
2023/07/26 03:40:35;;;;;;;27.92;3.08;;;;;;;31.80;57.97;98638.34;5051282;28;20634;-73
2023/07/26 03:43:02;;;;;;;31.05;4.68;;;;;;;31.85;59.13;98648.63;5051940;28;20206;-73
2023/07/26 03:45:29;;;;;;;31.33;3.20;;;;;;;31.89;58.24;98648.16;5053502;28;20701;-73
2023/07/26 03:47:55;;;;;;;28.95;3.08;;;;;;;31.95;56.75;98644.91;5053629;28;20205;-72
2023/07/26 03:50:22;;;;;;;24.40;2.75;;;;;;;31.94;59.78;98653.09;5051099;28;20289;-72
2023/07/26 03:52:49;;;;;;;29.15;3.17;;;;;;;32.06;61.09;98664.53;5054105;28;20206;-72
2023/07/26 03:55:16;;;;;;;31.70;3.53;;;;;;;31.66;61.33;98668.28;5053848;28;20194;-72
2023/07/26 03:57:44;;;;;;;28.83;3.20;;;;;;;31.71;62.79;98666.03;5054183;28;20206;-72
2023/07/26 04:00:13;;;;;;;27.10;2.92;;;;;;;31.64;67.87;98678.31;5053616;28;20277;-72
2023/07/26 04:02:39;;;;;;;35.67;3.72;;;;;;;31.68;65.06;98681.56;5051523;28;20206;-72
2023/07/26 04:05:07;;;;;;;27.45;2.85;;;;;;;31.75;66.18;98656.69;5053622;28;20223;-72
2023/07/26 04:07:36;;;;;;;35.67;3.83;;;;;;;31.92;62.69;98666.66;5034658;28;20194;-72
2023/07/26 04:10:03;;;;;;;16.98;2.30;;;;;;;31.84;62.02;98671.91;5053650;28;20253;-73
2023/07/26 04:12:30;;;;;;;34.47;3.42;;;;;;;31.83;60.10;98659.50;5034618;28;20592;-72
2023/07/26 04:14:58;;;;;;;30.95;3.20;;;;;;;32.14;56.76;98684.25;5053528;28;20195;-72
2023/07/26 04:17:25;;;;;;;31.42;3.30;;;;;;;31.77;56.54;98619.00;5053372;28;20210;-72
2023/07/26 04:19:52;;;;;;;30.10;3.15;;;;;;;32.12;54.53;98634.44;5052918;28;20206;-72
2023/07/26 04:22:19;;;;;;;28.00;3.00;;;;;;;32.41;53.73;98676.22;5053504;28;20908;-73
2023/07/26 04:24:46;;;;;;;35.22;3.70;;;;;;;32.59;51.52;98676.31;5052916;28;20240;-73
2023/07/26 04:27:13;;;;;;;32.20;3.38;;;;;;;32.70;50.94;98678.78;5053077;28;20199;-73
2023/07/26 04:29:42;;;;;;;28.55;3.17;;;;;;;32.86;49.96;98662.00;5053044;28;20634;-73
2023/07/26 04:32:11;;;;;;;32.75;3.60;;;;;;;33.12;50.52;98678.22;5017592;28;20286;-72
2023/07/26 04:34:38;;;;;;;28.55;3.00;;;;;;;32.89;50.36;98670.59;5033642;28;20195;-75
2023/07/26 04:37:05;;;;;;;31.95;3.38;;;;;;;32.86;52.18;98687.00;5051828;28;20194;-74
2023/07/26 04:39:31;;;;;;;25.15;2.88;;;;;;;32.91;50.42;98684.72;5052688;28;20207;-74
2023/07/26 04:41:58;;;;;;;31.95;3.50;;;;;;;32.82;51.19;98688.31;5053087;28;20207;-74
2023/07/26 04:44:25;;;;;;;24.75;2.83;;;;;;;32.81;50.88;98688.47;5052770;28;20195;-84
2023/07/26 04:46:52;;;;;;;27.90;2.97;;;;;;;32.85;50.75;98690.72;5059065;28;20207;-81
2023/07/26 04:49:20;;;;;;;33.58;3.55;;;;;;;32.98;50.82;98684.09;5055906;28;20206;-82
2023/07/26 04:51:46;;;;;;;33.78;3.38;;;;;;;32.95;49.79;98687.94;5055521;28;20276;-82
2023/07/26 04:54:13;;;;;;;32.83;3.42;;;;;;;32.82;49.49;98669.50;5053849;28;20217;-84
2023/07/26 04:56:40;;;;;;;32.60;3.47;;;;;;;33.01;48.56;98673.06;5053322;28;20199;-82
2023/07/26 04:59:07;;;;;;;29.13;3.45;;;;;;;33.36;48.13;98698.09;5053685;28;20285;-79
2023/07/26 05:01:34;;;;;;;37.40;3.90;;;;;;;33.41;47.95;98692.28;5053162;28;20211;-83
2023/07/26 05:04:01;;;;;;;28.17;3.03;;;;;;;33.85;48.56;98701.22;5053295;28;20199;-84
2023/07/26 05:06:30;;;;;;;30.58;3.17;;;;;;;34.21;47.42;98696.59;5053162;28;20227;-80
2023/07/26 05:08:57;;;;;;;25.02;2.95;;;;;;;34.34;46.82;98705.06;5052425;28;20238;-78
2023/07/26 05:11:24;;;;;;;27.92;3.13;;;;;;;34.18;46.75;98694.19;5052797;28;20199;-77
2023/07/26 05:13:51;;;;;;;33.47;3.45;;;;;;;34.48;46.03;98696.38;5053666;28;20199;-78
2023/07/26 05:16:18;;;;;;;30.13;3.22;;;;;;;34.40;46.85;98674.78;5052592;28;20195;-78
2023/07/26 05:18:44;;;;;;;30.90;3.88;;;;;;;34.67;45.55;98698.84;5032961;28;20194;-82
2023/07/26 05:21:11;;;;;;;25.88;2.90;;;;;;;34.65;45.36;98692.75;5051475;28;20203;-82
2023/07/26 05:23:39;;;;;;;32.95;3.42;;;;;;;34.81;44.62;98698.22;5052933;28;20203;-81
2023/07/26 05:26:06;;;;;;;31.33;3.33;;;;;;;34.88;45.25;98697.56;5052519;28;20242;-80
2023/07/26 05:28:33;;;;;;;29.05;3.00;;;;;;;35.24;45.33;98689.06;5053165;28;20198;-82
2023/07/26 05:31:00;;;;;;;27.88;3.00;;;;;;;35.22;45.01;98698.31;5053003;28;20202;-82
2023/07/26 05:33:26;;;;;;;34.70;3.50;;;;;;;35.27;43.95;98701.38;5052747;28;20629;-82
2023/07/26 05:35:53;;;;;;;28.98;3.17;;;;;;;35.34;44.12;98696.97;5017602;28;20202;-82
2023/07/26 05:38:20;;;;;;;31.63;3.45;;;;;;;35.19;44.15;98677.09;5052807;28;20203;-82
2023/07/26 05:40:48;;;;;;;28.58;3.05;;;;;;;35.37;43.73;98696.66;5053285;28;20207;-82
2023/07/26 05:43:16;;;;;;;29.48;3.83;;;;;;;35.05;44.39;98686.66;5053041;28;20265;-82
2023/07/26 05:45:43;;;;;;;27.20;2.95;;;;;;;35.17;43.90;98697.97;5017631;28;20230;-81
2023/07/26 05:48:10;;;;;;;29.23;3.28;;;;;;;35.20;44.75;98703.03;5052180;28;20631;-82
2023/07/26 05:50:37;;;;;;;40.45;3.50;;;;;;;35.59;42.95;98705.91;5052596;28;20620;-82
2023/07/26 05:53:04;;;;;;;27.00;2.95;;;;;;;35.99;42.59;98686.19;5052411;28;20202;-80
2023/07/26 05:55:30;;;;;;;27.33;3.05;;;;;;;36.67;41.88;98705.41;5052318;28;20203;-83
2023/07/26 05:57:58;;;;;;;32.15;3.47;;;;;;;36.81;41.42;98710.06;5052392;28;20668;-81
2023/07/26 06:00:25;;;;;;;31.48;3.33;;;;;;;37.23;40.18;98715.06;5052332;28;20206;-81
2023/07/26 06:02:52;;;;;;;27.23;3.10;;;;;;;37.51;40.07;98707.28;5052112;28;20194;-81
2023/07/26 06:05:19;;;;;;;19.42;2.35;;;;;;;38.05;39.05;98718.81;5052281;28;20234;-84
2023/07/26 06:07:45;;;;;;;29.08;3.20;;;;;;;38.45;40.27;98718.41;5052196;28;20229;-82
2023/07/26 06:10:12;;;;;;;26.02;2.95;;;;;;;38.61;39.98;98711.94;5052068;28;20214;-83
2023/07/26 06:12:39;;;;;;;29.15;3.10;;;;;;;38.51;41.67;98720.34;5052039;28;20209;-82
2023/07/26 06:15:08;;;;;;;28.77;3.08;;;;;;;38.63;41.96;98721.56;5051789;28;20206;-81
2023/07/26 06:17:39;;;;;;;30.25;3.20;;;;;;;38.61;43.90;98715.47;5017116;28;20198;-83
2023/07/26 06:20:07;;;;;;;20.90;2.33;;;;;;;38.87;42.96;98715.00;5052779;28;20632;-82
2023/07/26 06:22:34;;;;;;;30.00;3.17;;;;;;;39.01;41.97;98716.00;5053952;28;20199;-82
2023/07/26 06:25:00;;;;;;;15.13;1.92;;;;;;;39.32;40.42;98713.00;5059060;28;20221;-82
2023/07/26 06:27:30;;;;;;;32.63;3.38;;;;;;;39.49;42.77;98723.41;5056211;28;20241;-82
2023/07/26 06:29:58;;;;;;;30.70;4.43;;;;;;;39.21;40.50;98719.75;5053207;28;20233;-82
2023/07/26 06:32:26;;;;;;;30.38;3.92;;;;;;;39.23;40.41;98725.00;5055309;28;20202;-84
2023/07/26 06:34:53;;;;;;;30.55;3.38;;;;;;;38.96;40.59;98721.97;5067948;28;20272;-84
2023/07/26 06:37:20;;;;;;;29.10;3.15;;;;;;;38.74;39.51;98717.53;5053371;28;20199;-82
2023/07/26 06:39:46;;;;;;;29.73;3.42;;;;;;;38.74;41.81;98722.97;5051890;28;20195;-82
2023/07/26 06:42:13;;;;;;;32.50;3.35;;;;;;;38.80;40.17;98721.34;5051665;28;20222;-82
2023/07/26 06:44:40;;;;;;;26.67;3.35;;;;;;;38.69;38.01;98728.94;5051306;28;20580;-79
2023/07/26 06:47:07;;;;;;;30.77;3.22;;;;;;;38.30;39.72;98730.22;5049867;28;20226;-84
2023/07/26 06:49:36;;;;;;;29.90;3.35;;;;;;;38.04;39.85;98733.38;5051606;28;20203;-80
2023/07/26 06:52:02;;;;;;;32.70;3.38;;;;;;;38.18;39.54;98727.13;5051428;28;20206;-78
2023/07/26 06:54:30;;;;;;;32.63;3.40;;;;;;;38.15;37.94;98732.94;5051023;28;20206;-79
2023/07/26 06:56:57;;;;;;;29.27;3.13;;;;;;;38.01;38.34;98726.47;5051829;28;20207;-82
2023/07/26 06:59:24;;;;;;;21.75;2.47;;;;;;;38.23;39.98;98724.72;5051805;28;20220;-83
2023/07/26 07:01:51;;;;;;;31.38;3.30;;;;;;;38.21;37.03;98726.75;5050526;28;20264;-72
2023/07/26 07:04:17;;;;;;;28.73;3.10;;;;;;;38.07;36.35;98706.78;5050176;28;20195;-72
2023/07/26 07:06:45;;;;;;;28.27;3.38;;;;;;;38.50;39.09;98728.66;5050221;28;20227;-73
2023/07/26 07:09:13;;;;;;;23.55;2.65;;;;;;;37.48;42.16;98732.00;5050206;28;20721;-73
2023/07/26 07:11:41;;;;;;;18.80;2.25;;;;;;;37.32;41.54;98715.84;5050402;28;20207;-73
2023/07/26 07:14:07;;;;;;;29.33;3.17;;;;;;;37.61;42.05;98721.38;5049976;28;20755;-73
2023/07/26 07:16:34;;;;;;;24.70;2.78;;;;;;;37.73;43.88;98720.78;5050428;28;20332;-73
2023/07/26 07:19:01;;;;;;;31.67;3.63;;;;;;;37.82;41.74;98726.94;5050095;28;20203;-73
2023/07/26 07:21:28;;;;;;;29.63;3.22;;;;;;;37.94;42.16;98730.09;5049963;28;20248;-72
2023/07/26 07:23:56;;;;;;;28.42;3.03;;;;;;;37.93;41.62;98722.97;5050168;28;20669;-72
2023/07/26 07:26:22;;;;;;;26.77;2.95;;;;;;;37.89;42.07;98724.34;5015447;28;20226;-72
2023/07/26 07:28:49;;;;;;;32.67;3.42;;;;;;;37.78;41.40;98716.69;5049869;28;20203;-72
2023/07/26 07:31:17;;;;;;;25.92;2.92;;;;;;;37.86;40.55;98720.16;5050082;28;20264;-72
2023/07/26 07:33:43;;;;;;;28.02;3.15;;;;;;;38.02;39.94;98727.31;5049970;28;20743;-72
2023/07/26 07:36:15;;;;;;;25.52;2.83;;;;;;;38.14;40.88;98723.09;5050085;28;20655;-74
2023/07/26 07:38:41;;;;;;;25.13;2.83;;;;;;;38.22;37.91;98737.41;5050073;28;20249;-72
2023/07/26 07:41:10;;;;;;;31.08;3.33;;;;;;;38.12;37.78;98736.84;5031242;28;20195;-72
2023/07/26 07:43:38;;;;;;;22.88;2.75;;;;;;;38.12;36.20;98727.88;5049995;28;20685;-73
2023/07/26 07:46:05;;;;;;;33.83;3.42;;;;;;;38.32;36.53;98723.59;5049930;28;20272;-73
2023/07/26 07:48:32;;;;;;;23.27;2.60;;;;;;;38.59;36.00;98733.81;5031245;28;20252;-73
2023/07/26 07:50:58;;;;;;;24.52;2.78;;;;;;;38.34;34.07;98732.38;5049751;28;20199;-73
2023/07/26 07:53:25;;;;;;;25.27;2.83;;;;;;;38.30;33.23;98731.06;5049887;28;20199;-73
2023/07/26 07:55:53;;;;;;;29.85;3.28;;;;;;;38.62;33.66;98730.72;5049635;28;20749;-73
2023/07/26 07:58:21;;;;;;;29.85;3.25;;;;;;;38.79;33.21;98727.78;5049701;28;20670;-73
2023/07/26 08:00:48;;;;;;;35.00;3.53;;;;;;;38.79;33.76;98720.50;5031135;28;20245;-73
2023/07/26 08:03:15;;;;;;;20.88;2.60;;;;;;;38.58;33.99;98724.00;5049648;28;20591;-74
2023/07/26 08:05:41;;;;;;;22.38;3.25;;;;;;;38.41;32.97;98702.72;5050291;28;20577;-72
2023/07/26 08:08:08;;;;;;;23.90;2.72;;;;;;;38.64;33.04;98734.06;5049553;28;20757;-72
2023/07/26 08:10:38;;;;;;;30.67;3.25;;;;;;;38.78;33.74;98728.84;5049702;28;20594;-74
2023/07/26 08:13:05;;;;;;;27.48;3.03;;;;;;;38.62;33.80;98741.56;5052536;28;20230;-73
2023/07/26 08:15:34;;;;;;;28.85;3.30;;;;;;;38.68;33.75;98735.38;5053219;28;20210;-73
2023/07/26 08:18:01;;;;;;;27.25;3.17;;;;;;;38.57;34.39;98722.31;5053057;28;20631;-72
2023/07/26 08:20:28;;;;;;;30.17;3.17;;;;;;;38.58;34.96;98718.56;5053278;28;20198;-73
2023/07/26 08:22:55;;;;;;;28.65;3.10;;;;;;;38.59;35.80;98714.00;5053312;28;20237;-71
2023/07/26 08:25:22;;;;;;;29.15;3.10;;;;;;;38.25;35.10;98713.69;5053237;28;20212;-73
2023/07/26 08:27:48;;;;;;;28.67;3.03;;;;;;;38.32;34.71;98714.63;5053187;28;20231;-74
2023/07/26 08:30:15;;;;;;;27.33;3.10;;;;;;;38.32;34.02;98714.63;5053003;28;20194;-73
2023/07/26 08:32:43;;;;;;;31.90;3.63;;;;;;;38.38;33.80;98716.59;5051154;28;20206;-73
2023/07/26 08:35:10;;;;;;;31.38;3.30;;;;;;;38.14;34.88;98709.56;5053065;28;20222;-72
2023/07/26 08:37:37;;;;;;;29.25;3.38;;;;;;;37.99;34.44;98716.88;5052905;28;20573;-72
2023/07/26 08:40:04;;;;;;;31.40;3.22;;;;;;;38.20;34.38;98704.28;5052944;28;20214;-72
2023/07/26 08:42:31;;;;;;;35.78;3.58;;;;;;;38.18;35.29;98697.34;5051640;28;20202;-73
2023/07/26 08:44:58;;;;;;;31.50;3.35;;;;;;;38.31;33.57;98702.97;5054531;28;20826;-73
2023/07/26 08:47:27;;;;;;;28.70;3.08;;;;;;;38.25;33.65;98683.88;5058220;28;20618;-73
2023/07/26 08:49:55;;;;;;;24.33;3.05;;;;;;;38.46;33.52;98682.13;5068469;28;20543;-75
2023/07/26 08:52:22;;;;;;;27.75;3.05;;;;;;;38.55;32.46;98683.72;5034171;28;20203;-73
2023/07/26 08:54:50;;;;;;;27.73;3.20;;;;;;;38.67;32.77;98679.50;5069015;28;20657;-72
2023/07/26 08:57:18;;;;;;;32.72;3.42;;;;;;;38.59;30.06;98660.66;5072406;28;20289;-73
2023/07/26 08:59:44;;;;;;;36.35;3.67;;;;;;;38.53;29.80;98674.94;5022795;28;20670;-73
2023/07/26 09:02:14;;;;;;;21.00;2.45;;;;;;;38.65;31.14;98648.19;5059204;28;20260;-73
2023/07/26 09:04:41;;;;;;;24.48;2.70;;;;;;;39.03;30.61;98682.22;5072126;28;20285;-73
2023/07/26 09:07:10;;;;;;;26.70;3.03;;;;;;;39.05;29.19;98673.91;5052598;28;20693;-72
2023/07/26 09:09:37;;;;;;;30.00;3.30;;;;;;;39.14;30.93;98649.19;5064029;28;20234;-72
2023/07/26 09:12:04;;;;;;;23.48;2.78;;;;;;;39.31;32.78;98674.22;5072033;28;20209;-72
2023/07/26 09:14:32;;;;;;;27.15;3.00;;;;;;;39.48;30.48;98663.91;5072183;28;20598;-72
2023/07/26 09:17:01;;;;;;;24.55;2.75;;;;;;;39.64;30.55;98650.06;5057420;28;20206;-71
2023/07/26 09:19:29;;;;;;;25.70;2.92;;;;;;;39.86;31.21;98664.44;5063417;28;20207;-72
2023/07/26 09:21:59;;;;;;;23.98;2.63;;;;;;;39.49;29.65;98663.72;5017795;28;20242;-73
2023/07/26 09:24:33;;;;;;;26.83;3.63;;;;;;;39.52;29.71;98652.50;5029013;28;20235;-73
2023/07/26 09:27:04;;;;;;;27.08;3.17;;;;;;;39.58;29.38;98673.41;5066272;28;20221;-72
2023/07/26 09:29:31;;;;;;;30.25;3.17;;;;;;;39.48;31.69;98642.22;5071566;28;20277;-72
2023/07/26 09:31:58;;;;;;;26.23;2.88;;;;;;;39.64;32.11;98637.31;5071854;28;20624;-72
2023/07/26 09:34:24;;;;;;;30.27;3.65;;;;;;;39.80;31.35;98646.25;5057616;28;20190;-72
2023/07/26 09:36:52;;;;;;;32.20;3.38;;;;;;;39.53;33.05;98648.72;5059746;28;20202;-72
2023/07/26 09:39:21;;;;;;;28.67;3.22;;;;;;;39.39;27.05;98646.94;5069593;28;20201;-72
2023/07/26 09:41:51;;;;;;;28.70;3.13;;;;;;;39.57;25.75;98651.88;5071426;28;20597;-72
2023/07/26 09:44:20;;;;;;;24.85;2.72;;;;;;;39.46;30.12;98647.81;5057403;28;20659;-77
2023/07/26 09:46:49;;;;;;;34.72;4.85;;;;;;;39.19;31.78;98629.63;5062505;28;20605;-80
2023/07/26 09:49:16;;;;;;;39.15;3.83;;;;;;;38.58;31.65;98572.25;5017025;28;20203;-79
2023/07/26 09:51:43;;;;;;;29.70;3.20;;;;;;;39.19;31.95;98637.75;5052423;28;20688;-78
2023/07/26 09:54:10;;;;;;;32.45;3.70;;;;;;;39.13;32.04;98614.13;5065702;28;20213;-76
2023/07/26 09:56:39;;;;;;;28.20;3.00;;;;;;;39.34;32.17;98638.56;5022475;28;20202;-75
2023/07/26 09:59:10;;;;;;;42.40;4.35;;;;;;;39.38;30.20;98633.56;5024839;28;20203;-79
2023/07/26 10:01:41;;;;;;;25.35;2.75;;;;;;;39.28;30.18;98612.19;5056639;28;20297;-78
2023/07/26 10:04:13;;;;;;;27.10;3.03;;;;;;;39.25;30.89;98633.41;5036576;28;20271;-77
2023/07/26 10:06:42;;;;;;;27.05;2.95;;;;;;;39.23;30.66;98609.22;5071610;28;20261;-78
2023/07/26 10:09:13;;;;;;;26.92;2.88;;;;;;;39.19;31.81;98624.19;5071616;28;20708;-78
2023/07/26 10:11:42;;;;;;;29.88;3.47;;;;;;;39.39;31.78;98611.66;5072080;28;20234;-78
2023/07/26 10:14:11;;;;;;;25.92;2.88;;;;;;;38.91;31.65;98607.03;5071606;28;20541;-77
2023/07/26 10:16:41;;;;;;;20.60;2.53;;;;;;;38.99;31.01;98623.19;5071406;28;20237;-78
2023/07/26 10:19:08;;;;;;;34.97;3.65;;;;;;;39.11;30.88;98610.75;5071211;28;20206;-75
2023/07/26 10:21:36;;;;;;;31.70;3.42;;;;;;;39.11;31.14;98617.03;5056999;28;20199;-78
2023/07/26 10:24:04;;;;;;;29.38;3.08;;;;;;;39.35;30.95;98618.50;5064265;28;20292;-83
2023/07/26 10:26:34;;;;;;;24.10;2.75;;;;;;;39.49;30.08;98619.47;5065006;28;20264;-77
2023/07/26 10:29:02;;;;;;;27.77;3.03;;;;;;;39.36;27.88;98617.47;5037580;28;20213;-75
2023/07/26 10:31:30;;;;;;;27.60;3.08;;;;;;;39.67;27.77;98601.63;5032427;28;20256;-73
2023/07/26 10:33:58;;;;;;;31.30;3.92;;;;;;;39.96;28.78;98610.63;5069286;28;20210;-73
2023/07/26 10:36:29;;;;;;;24.00;2.75;;;;;;;40.02;29.53;98607.97;5070037;28;20352;-73
2023/07/26 10:38:56;;;;;;;38.47;4.63;;;;;;;39.79;30.47;98607.41;5056314;28;20233;-73
2023/07/26 10:41:25;;;;;;;15.15;2.03;;;;;;;39.96;31.32;98616.03;5070649;28;20198;-73
2023/07/26 10:44:02;;;;;;;29.33;3.33;;;;;;;40.08;28.39;98596.28;5070736;28;20281;-73
2023/07/26 10:46:31;;;;;;;28.83;3.25;;;;;;;40.09;26.76;98599.84;5035327;28;20209;-73
2023/07/26 10:48:58;;;;;;;26.30;2.97;;;;;;;40.08;28.87;98585.44;5070622;28;20629;-73
2023/07/26 10:51:27;;;;;;;27.38;3.00;;;;;;;40.07;30.08;98601.91;5070414;28;20198;-74
2023/07/26 10:53:55;;;;;;;26.45;2.92;;;;;;;40.05;29.01;98587.72;5070389;28;20267;-73
2023/07/26 10:56:25;;;;;;;21.92;2.53;;;;;;;39.99;28.72;98589.34;5070424;28;20206;-74
2023/07/26 10:58:55;;;;;;;22.35;2.60;;;;;;;40.09;29.10;98594.41;5070552;28;20281;-73
2023/07/26 11:01:36;;;;;;;23.92;2.75;;;;;;;40.13;28.25;98596.53;5070270;28;20206;-73
2023/07/26 11:04:10;;;;;;;24.10;2.70;;;;;;;40.18;28.12;98593.22;5052201;28;20205;-73
2023/07/26 11:06:55;;;;;;;33.20;3.65;;;;;;;40.05;27.78;98604.84;5070150;28;20292;-74
2023/07/26 11:09:25;;;;;;;24.13;2.75;;;;;;;40.04;28.05;98607.75;5083996;28;20666;-73
2023/07/26 11:11:57;;;;;;;32.28;3.35;;;;;;;40.08;28.25;98595.44;5070140;28;20198;-73
2023/07/26 11:14:25;;;;;;;30.00;3.22;;;;;;;39.81;28.28;98588.22;5070315;28;20222;-73
2023/07/26 11:16:53;;;;;;;26.95;3.08;;;;;;;39.62;28.09;98589.72;5069939;28;20297;-73
2023/07/26 11:19:20;;;;;;;25.33;2.92;;;;;;;39.39;28.19;98606.22;5070642;28;20237;-73
2023/07/26 11:21:47;;;;;;;32.45;3.85;;;;;;;39.53;28.75;98589.00;5070263;28;20202;-73
2023/07/26 11:24:14;;;;;;;19.15;2.35;;;;;;;39.94;29.25;98582.84;5051701;28;20659;-73
2023/07/26 11:26:43;;;;;;;26.93;3.13;;;;;;;40.00;28.74;98563.84;5035020;28;20217;-73